Time;durP1;ratioP1;P1;durP2;ratioP2;P2;SDS_P1;SDS_P2;PMS_P1;PMS_P2;Temp;Humidity;BMP_temperature;BMP_pressure;BME280_temperature;BME280_humidity;BME280_pressure;Samples;Min_cycle;Max_cycle;Signal;HPM_P1;HPM_P2
2022/08/18 00:03:46;;;;;;;31.42;23.40;;;;;;;18.35;100.00;100286.06;8290910;28;20561;-49
2022/08/18 00:07:46;;;;;;;29.95;23.05;;;;;;;18.66;100.00;100278.38;8290351;28;20046;-51
2022/08/18 00:11:47;;;;;;;29.70;22.23;;;;;;;18.25;100.00;100285.56;8290368;28;20494;-50
2022/08/18 00:15:47;;;;;;;33.08;22.05;;;;;;;18.32;100.00;100280.97;8290667;28;20518;-50
2022/08/18 00:19:48;;;;;;;33.42;23.55;;;;;;;18.11;100.00;100277.41;8290398;28;20049;-51
2022/08/18 00:23:48;;;;;;;36.35;24.80;;;;;;;17.95;100.00;100273.03;8289148;28;20041;-52
2022/08/18 00:27:49;;;;;;;36.60;24.95;;;;;;;18.18;100.00;100268.22;8290298;28;20437;-52
2022/08/18 00:31:50;;;;;;;41.58;28.25;;;;;;;18.11;100.00;100272.75;8290062;28;20041;-52
2022/08/18 00:35:50;;;;;;;46.88;30.50;;;;;;;18.30;100.00;100266.63;8289970;28;20049;-51
2022/08/18 00:39:52;;;;;;;49.20;31.92;;;;;;;18.50;100.00;100250.41;8289889;28;20100;-51
2022/08/18 00:43:54;;;;;;;48.03;31.02;;;;;;;18.57;100.00;100235.75;8289622;28;20037;-52
2022/08/18 00:47:55;;;;;;;46.60;32.42;;;;;;;18.48;100.00;100236.94;8289120;28;20084;-50
2022/08/18 00:51:56;;;;;;;38.50;29.10;;;;;;;18.21;100.00;100231.41;8289274;28;20046;-52
2022/08/18 00:56:02;;;;;;;48.33;32.72;;;;;;;17.81;100.00;100230.13;8283534;28;20034;-52
2022/08/18 01:00:10;;;;;;;46.67;31.80;;;;;;;17.61;100.00;100231.81;8291836;28;20549;-52
2022/08/18 01:04:23;;;;;;;53.38;36.45;;;;;;;17.57;100.00;100241.47;8287846;28;20049;-51
2022/08/18 01:08:25;;;;;;;51.83;35.15;;;;;;;17.65;100.00;100252.25;8288186;28;20487;-52
2022/08/18 01:12:26;;;;;;;53.75;36.42;;;;;;;17.77;100.00;100263.53;8288915;28;20042;-52
2022/08/18 01:22:04;;;;;;;51.67;35.95;;;;;;;18.13;100.00;100265.22;8284148;28;20409;-52
2022/08/18 01:26:25;;;;;;;55.33;34.47;;;;;;;18.19;100.00;100275.38;8285587;28;20032;-51
2022/08/18 01:29:47;;;;;;;54.13;35.95;;;;;;;18.27;100.00;100272.50;8283948;28;20038;-49
2022/08/18 01:33:47;;;;;;;47.72;32.97;;;;;;;17.95;100.00;100266.69;8286660;28;20057;-50
2022/08/18 01:37:48;;;;;;;52.85;35.33;;;;;;;17.51;100.00;100280.50;8288374;28;20077;-52
2022/08/18 01:41:48;;;;;;;54.83;36.70;;;;;;;17.50;100.00;100270.56;8287612;28;20146;-52
2022/08/18 01:45:49;;;;;;;57.45;38.05;;;;;;;17.63;100.00;100283.56;8288266;28;20068;-50
2022/08/18 01:49:52;;;;;;;56.20;37.55;;;;;;;17.60;100.00;100282.91;8288093;28;20126;-51
2022/08/18 01:53:52;;;;;;;51.67;33.95;;;;;;;17.60;100.00;100284.81;8287492;28;20044;-50
2022/08/18 01:57:54;;;;;;;45.88;31.98;;;;;;;17.67;100.00;100285.75;8288290;28;21537;-51
2022/08/18 02:01:55;;;;;;;45.10;32.35;;;;;;;17.78;100.00;100279.75;8286887;28;20030;-50
2022/08/18 02:05:59;;;;;;;52.45;33.35;;;;;;;17.57;100.00;100266.88;8287355;28;20521;-52
2022/08/18 02:10:00;;;;;;;63.92;41.25;;;;;;;17.41;100.00;100258.88;8287186;28;20294;-52
2022/08/18 02:14:01;;;;;;;71.47;44.55;;;;;;;17.31;100.00;100246.53;8286592;28;20049;-49
2022/08/18 02:18:01;;;;;;;71.15;44.22;;;;;;;17.25;100.00;100258.22;8287405;28;20184;-51
2022/08/18 02:22:03;;;;;;;74.55;47.40;;;;;;;17.42;100.00;100251.53;8290794;28;20034;-50
2022/08/18 02:26:09;;;;;;;82.75;50.47;;;;;;;17.50;100.00;100256.91;8293120;28;20113;-49
2022/08/18 02:30:12;;;;;;;85.50;50.05;;;;;;;17.54;100.00;100261.81;8289652;28;20030;-50
2022/08/18 02:34:15;;;;;;;81.47;51.13;;;;;;;17.59;100.00;100266.69;8292458;28;20185;-51
2022/08/18 02:38:15;;;;;;;83.70;51.47;;;;;;;17.53;100.00;100267.47;8292384;28;20285;-50
2022/08/18 02:42:16;;;;;;;89.55;54.00;;;;;;;17.49;100.00;100267.00;8294743;28;20084;-53
2022/08/18 02:46:16;;;;;;;80.45;47.47;;;;;;;17.41;100.00;100252.56;8297919;28;20034;-51
2022/08/18 02:50:16;;;;;;;86.97;47.17;;;;;;;17.14;100.00;100245.06;8295366;28;20037;-51
2022/08/18 02:54:19;;;;;;;77.63;49.08;;;;;;;17.07;100.00;100244.97;8292681;28;20552;-52
2022/08/18 02:58:20;;;;;;;87.75;49.88;;;;;;;17.06;100.00;100235.09;8292887;28;20414;-51
2022/08/18 03:02:21;;;;;;;83.10;48.80;;;;;;;17.11;100.00;100226.31;8292621;28;20060;-50
2022/08/18 03:06:23;;;;;;;84.40;49.42;;;;;;;17.17;100.00;100233.75;8292604;28;20384;-49
2022/08/18 03:10:23;;;;;;;70.97;43.80;;;;;;;17.18;100.00;100235.44;8291811;28;20038;-52
2022/08/18 03:14:24;;;;;;;76.60;46.70;;;;;;;17.05;100.00;100240.72;8291024;28;20124;-49
2022/08/18 03:18:24;;;;;;;68.90;43.50;;;;;;;16.79;100.00;100245.78;8283842;28;20037;-52
2022/08/18 03:22:25;;;;;;;79.38;47.15;;;;;;;16.84;100.00;100243.38;8292060;28;20046;-50
2022/08/18 03:26:26;;;;;;;82.22;47.72;;;;;;;16.88;100.00;100240.06;8290631;28;20058;-49
2022/08/18 03:30:26;;;;;;;82.90;47.75;;;;;;;16.78;100.00;100238.66;8291126;28;20138;-52
2022/08/18 03:34:27;;;;;;;80.13;48.53;;;;;;;16.53;100.00;100231.75;8290573;28;20056;-52
2022/08/18 03:38:28;;;;;;;87.10;49.35;;;;;;;16.65;100.00;100239.28;8291742;28;20392;-51
2022/08/18 03:42:28;;;;;;;88.63;51.13;;;;;;;16.71;100.00;100234.97;8290728;28;20494;-50
2022/08/18 03:46:29;;;;;;;93.40;51.22;;;;;;;16.81;100.00;100227.34;8291678;28;20522;-51
2022/08/18 03:50:31;;;;;;;93.50;52.00;;;;;;;16.66;100.00;100230.09;8291119;28;20066;-51
2022/08/18 03:54:32;;;;;;;90.57;51.65;;;;;;;16.73;100.00;100249.28;8290438;28;20049;-52
2022/08/18 03:58:32;;;;;;;91.38;50.03;;;;;;;16.74;100.00;100253.72;8290508;28;20045;-50
2022/08/18 04:02:33;;;;;;;86.90;49.10;;;;;;;16.61;100.00;100254.34;8290493;28;20128;-50
2022/08/18 04:06:38;;;;;;;70.17;42.27;;;;;;;16.50;100.00;100264.88;8290736;28;20050;-52
2022/08/18 04:10:38;;;;;;;75.00;46.28;;;;;;;16.11;100.00;100277.78;8290326;28;20276;-52
2022/08/18 04:14:42;;;;;;;91.40;51.78;;;;;;;16.20;100.00;100276.69;8289460;28;20045;-52
2022/08/18 04:18:43;;;;;;;91.07;53.25;;;;;;;16.52;100.00;100260.06;8289622;28;20042;-49
2022/08/18 04:22:45;;;;;;;87.50;50.60;;;;;;;16.68;100.00;100254.47;8286938;28;20096;-49
2022/08/18 04:26:47;;;;;;;112.43;58.28;;;;;;;17.24;100.00;100264.75;8289999;28;20053;-51
2022/08/18 04:30:47;;;;;;;117.18;57.40;;;;;;;17.44;100.00;100271.34;8288710;28;20598;-52
2022/08/18 04:34:48;;;;;;;135.32;62.13;;;;;;;17.62;100.00;100282.72;8288500;28;20562;-50
2022/08/18 04:38:49;;;;;;;147.25;64.38;;;;;;;17.63;100.00;100292.63;8289459;28;20041;-49
2022/08/18 04:42:49;;;;;;;150.25;67.60;;;;;;;17.67;100.00;100298.56;8286906;28;20058;-52
2022/08/18 04:46:52;;;;;;;147.30;68.00;;;;;;;17.70;100.00;100289.97;8281396;28;20122;-51
2022/08/18 04:50:53;;;;;;;172.68;72.20;;;;;;;17.78;100.00;100287.97;8288644;28;20037;-50
2022/08/18 04:54:53;;;;;;;163.45;72.75;;;;;;;18.07;100.00;100293.34;8289050;28;20060;-49
2022/08/18 04:58:56;;;;;;;167.52;71.97;;;;;;;18.08;100.00;100288.75;8287667;28;20088;-51
2022/08/18 05:02:56;;;;;;;156.52;70.88;;;;;;;18.13;100.00;100311.72;8288166;28;20503;-52
2022/08/18 05:06:57;;;;;;;165.88;72.68;;;;;;;18.17;100.00;100309.47;8286969;28;20042;-51
2022/08/18 05:10:58;;;;;;;144.98;66.25;;;;;;;17.98;100.00;100319.13;8288482;28;20245;-49
2022/08/18 05:14:58;;;;;;;140.80;63.60;;;;;;;17.65;100.00;100314.31;8285060;28;20041;-49
2022/08/18 05:19:02;;;;;;;149.02;64.15;;;;;;;17.50;100.00;100319.78;8284999;28;20524;-52
2022/08/18 05:23:02;;;;;;;145.05;62.72;;;;;;;17.46;100.00;100326.66;8283980;28;20450;-51
2022/08/18 05:27:04;;;;;;;154.32;64.68;;;;;;;17.43;100.00;100329.78;8276304;28;20104;-52
2022/08/18 05:31:07;;;;;;;149.52;64.60;;;;;;;17.39;100.00;100320.25;8283297;28;20120;-51
2022/08/18 05:35:13;;;;;;;157.10;63.63;;;;;;;17.32;100.00;100325.59;8275171;28;20053;-52
2022/08/18 05:39:23;;;;;;;144.13;61.75;;;;;;;17.56;100.00;100328.09;8287808;28;20157;-53
2022/08/18 05:43:23;;;;;;;144.82;64.68;;;;;;;17.42;100.00;100325.34;8282268;28;20049;-51
2022/08/18 05:47:28;;;;;;;156.10;67.28;;;;;;;17.43;100.00;100327.03;8284199;28;20038;-50
2022/08/18 05:51:35;;;;;;;150.07;67.68;;;;;;;17.60;100.00;100323.09;8284282;28;20042;-49
2022/08/18 05:56:48;;;;;;;149.88;65.60;;;;;;;17.73;100.00;100328.72;8290423;28;20069;-53
2022/08/18 06:00:04;;;;;;;157.60;66.28;;;;;;;17.81;100.00;100334.06;8287622;28;20029;-50
2022/08/18 06:04:22;;;;;;;153.87;67.47;;;;;;;17.86;100.00;100337.09;8293836;28;20034;-51
2022/08/18 06:08:30;;;;;;;145.85;65.65;;;;;;;17.95;100.00;100344.13;8294430;28;20038;-52
2022/08/18 06:12:40;;;;;;;151.30;68.28;;;;;;;17.98;100.00;100343.75;8293821;28;20181;-52
2022/08/18 06:17:07;;;;;;;168.13;68.53;;;;;;;18.07;100.00;100361.75;8294512;28;20034;-50
2022/08/18 06:21:31;;;;;;;152.35;66.10;;;;;;;18.12;100.00;100362.03;8286620;28;20030;-53
2022/08/18 06:25:49;;;;;;;159.18;66.22;;;;;;;18.11;100.00;100373.19;8293398;28;20049;-53
2022/08/18 06:30:04;;;;;;;161.95;67.00;;;;;;;18.18;100.00;100377.69;8287195;28;20052;-51
2022/08/18 06:34:39;;;;;;;165.38;65.43;;;;;;;18.28;100.00;100378.22;8286356;28;20042;-52
2022/08/18 06:38:54;;;;;;;159.98;68.75;;;;;;;18.51;100.00;100378.91;8293630;28;20042;-53
2022/08/18 06:42:54;;;;;;;152.90;64.05;;;;;;;18.69;100.00;100383.94;8292859;28;20042;-50
2022/08/18 06:47:18;;;;;;;138.50;60.35;;;;;;;18.55;100.00;100380.22;8292080;28;20573;-51
2022/08/18 06:51:21;;;;;;;143.18;64.10;;;;;;;18.69;100.00;100393.00;8287218;28;20499;-50
2022/08/18 06:55:35;;;;;;;121.70;56.65;;;;;;;18.90;100.00;100390.25;8290933;28;20132;-52
2022/08/18 06:59:37;;;;;;;109.90;53.83;;;;;;;19.05;100.00;100371.84;8287473;28;20879;-53
2022/08/18 07:03:43;;;;;;;106.53;51.72;;;;;;;19.17;100.00;100375.72;8292400;28;20026;-52
2022/08/18 07:07:43;;;;;;;107.97;49.95;;;;;;;19.24;100.00;100371.13;8292532;28;20088;-50
2022/08/18 07:11:59;;;;;;;103.43;50.22;;;;;;;19.29;100.00;100373.31;8292250;28;20502;-51
2022/08/18 07:20:43;;;;;;;116.78;51.53;;;;;;;19.24;100.00;100360.16;8420173;27;20962;-48
2022/08/18 07:24:48;;;;;;;122.38;52.83;;;;;;;19.29;100.00;100374.16;8416013;27;20036;-49
2022/08/18 07:28:50;;;;;;;;;;;;;;;19.30;100.00;100375.84;8395259;27;20036;-49
2022/08/18 07:32:58;;;;;;;105.13;47.40;;;;;;;19.26;100.00;100358.13;8382320;28;19913;-51
2022/08/18 07:37:08;;;;;;;114.22;52.50;;;;;;;19.36;100.00;100352.25;8382329;28;20037;-53
2022/08/18 07:45:32;;;;;;;96.10;45.05;;;;;;;19.36;100.00;100364.09;8348833;27;20391;-50
2022/08/18 07:49:35;;;;;;;98.72;44.60;;;;;;;19.43;100.00;100370.44;8328510;28;20041;-50
2022/08/18 07:54:02;;;;;;;87.00;42.73;;;;;;;19.55;100.00;100372.66;8310570;28;20087;-51
2022/08/18 07:58:23;;;;;;;75.03;39.85;;;;;;;19.63;100.00;100378.81;8319026;28;20026;-50
2022/08/18 08:02:38;;;;;;;73.32;38.67;;;;;;;19.68;100.00;100380.94;8319874;28;20085;-51
2022/08/18 08:06:47;;;;;;;66.75;37.00;;;;;;;19.79;100.00;100385.88;8317381;28;20048;-52
2022/08/18 08:11:07;;;;;;;70.03;36.55;;;;;;;19.90;100.00;100394.38;8316902;28;20060;-49
2022/08/18 08:19:52;;;;;;;59.15;33.78;;;;;;;20.12;100.00;100400.56;8306490;28;20997;-48
2022/08/18 08:24:18;;;;;;;62.63;35.33;;;;;;;20.09;100.00;100398.22;8316054;28;20045;-47
2022/08/18 08:28:35;;;;;;;64.15;35.22;;;;;;;20.12;100.00;100392.34;8280993;28;20410;-49
2022/08/18 08:32:48;;;;;;;61.70;34.63;;;;;;;20.03;100.00;100388.09;8315350;28;20037;-48
2022/08/18 08:36:56;;;;;;;62.03;34.13;;;;;;;20.00;100.00;100389.34;8298994;28;20117;-48
2022/08/18 08:41:02;;;;;;;63.47;34.28;;;;;;;20.11;100.00;100401.63;8315052;28;20094;-48
2022/08/18 08:45:13;;;;;;;61.25;34.88;;;;;;;20.10;100.00;100399.94;8315483;28;20037;-49
2022/08/18 08:49:27;;;;;;;61.97;35.22;;;;;;;20.19;100.00;100416.06;8297585;28;20034;-48
2022/08/18 08:53:36;;;;;;;67.85;37.25;;;;;;;20.29;100.00;100404.69;8283685;28;20121;-48
2022/08/18 08:57:46;;;;;;;67.05;36.65;;;;;;;20.39;100.00;100405.16;8283278;28;20453;-52
2022/08/18 09:06:33;;;;;;;70.45;37.13;;;;;;;20.61;100.00;100420.41;8389838;27;20482;-50
2022/08/18 09:11:14;;;;;;;65.20;35.17;;;;;;;20.65;100.00;100405.22;8381503;28;20479;-51
2022/08/18 09:15:39;;;;;;;58.70;34.88;;;;;;;20.74;100.00;100404.81;8373348;27;20116;-48
2022/08/18 09:24:19;;;;;;;64.97;35.67;;;;;;;20.93;100.00;100408.66;8321065;27;21024;-51
2022/08/18 09:33:01;;;;;;;58.75;35.95;;;;;;;21.07;100.00;100393.88;8326430;27;20372;-51
2022/08/18 09:37:14;;;;;;;58.85;34.72;;;;;;;21.31;100.00;100396.00;8316744;28;20033;-50
2022/08/18 09:41:30;;;;;;;54.60;32.80;;;;;;;21.37;100.00;100408.91;8315760;28;20032;-50
2022/08/18 09:49:47;;;;;;;54.03;34.40;;;;;;;21.57;100.00;100401.47;8349298;27;20957;-51
2022/08/18 09:54:05;;;;;;;56.38;34.38;;;;;;;21.37;100.00;100417.16;8363759;28;20833;-52
2022/08/18 10:02:43;;;;;;;52.47;33.10;;;;;;;21.57;100.00;100414.38;8398340;27;20419;-52
2022/08/18 10:06:46;;;;;;;53.25;32.38;;;;;;;21.91;100.00;100411.38;8376850;28;20408;-50
2022/08/18 10:10:55;;;;;;;49.40;30.85;;;;;;;22.45;97.88;100407.09;8382187;28;20060;-48
2022/08/18 10:15:13;;;;;;;48.13;32.15;;;;;;;22.73;94.96;100410.41;8382148;28;20047;-48
2022/08/18 10:19:42;;;;;;;44.90;30.45;;;;;;;23.03;92.96;100408.66;8380238;28;20112;-51
2022/08/18 10:24:07;;;;;;;54.97;30.88;;;;;;;23.51;89.98;100402.59;8381715;28;20051;-52
2022/08/18 10:28:29;;;;;;;44.47;27.98;;;;;;;24.41;86.48;100397.94;8381280;28;20033;-52
2022/08/18 10:32:39;;;;;;;41.60;25.48;;;;;;;26.81;76.55;100389.09;8377118;28;20512;-52
2022/08/18 10:36:52;;;;;;;42.97;28.55;;;;;;;27.04;71.45;100376.19;8381509;28;20106;-50
2022/08/18 10:41:05;;;;;;;44.10;27.38;;;;;;;28.73;68.22;100376.19;8379158;28;20332;-48
2022/08/18 10:45:14;;;;;;;44.00;27.75;;;;;;;27.25;71.93;100375.47;8383987;28;20040;-49
2022/08/18 10:49:24;;;;;;;32.15;23.48;;;;;;;26.52;71.21;100372.69;8383336;28;20252;-51
2022/08/18 10:53:50;;;;;;;41.97;25.98;;;;;;;26.35;73.20;100356.00;8384814;28;20056;-52
2022/08/18 10:58:30;;;;;;;36.63;24.90;;;;;;;25.32;76.73;100356.16;8383162;28;20476;-52
2022/08/18 11:07:15;;;;;;;41.78;27.13;;;;;;;24.21;80.03;100352.31;8394154;27;20485;-50
2022/08/18 11:11:21;;;;;;;35.47;24.55;;;;;;;24.21;80.04;100355.06;8383466;28;20071;-50
2022/08/18 11:15:35;;;;;;;38.05;25.63;;;;;;;24.39;80.40;100352.25;8382803;28;20078;-48
2022/08/18 11:19:40;;;;;;;32.78;24.13;;;;;;;25.14;77.62;100356.22;8384491;28;20140;-48
2022/08/18 11:23:40;;;;;;;32.22;23.58;;;;;;;25.22;76.76;100353.09;8382181;28;20036;-51
2022/08/18 11:27:46;;;;;;;42.60;25.20;;;;;;;24.80;77.62;100338.50;8383282;28;20045;-51
2022/08/18 11:31:52;;;;;;;37.80;23.40;;;;;;;24.62;79.37;100319.16;8381775;28;20075;-48
2022/08/18 11:35:57;;;;;;;35.90;23.73;;;;;;;24.40;79.23;100326.31;8382347;28;20039;-48
2022/08/18 11:39:59;;;;;;;30.75;22.13;;;;;;;24.86;78.09;100332.00;8381732;28;20033;-49
2022/08/18 11:44:02;;;;;;;37.13;23.27;;;;;;;24.37;78.58;100333.13;8379768;28;20146;-48
2022/08/18 11:48:44;;;;;;;32.08;21.75;;;;;;;24.37;79.04;100332.31;8383329;28;20070;-50
2022/08/18 11:52:48;;;;;;;30.10;22.45;;;;;;;24.46;79.21;100326.19;8411505;28;20036;-48
2022/08/18 11:56:48;;;;;;;30.88;22.17;;;;;;;24.52;79.20;100327.19;8412600;28;20066;-49
2022/08/18 12:00:54;;;;;;;43.25;26.85;;;;;;;24.27;79.10;100315.41;8410223;28;20036;-48
2022/08/18 12:05:00;;;;;;;37.58;28.33;;;;;;;24.30;77.97;100320.47;8415066;28;20513;-51
2022/08/18 12:09:14;;;;;;;37.50;27.10;;;;;;;24.41;79.00;100337.13;8410882;28;20050;-52
2022/08/18 12:13:23;;;;;;;34.17;25.90;;;;;;;24.67;77.81;100347.81;8407228;28;20111;-52
2022/08/18 12:17:30;;;;;;;35.88;26.45;;;;;;;24.58;77.10;100364.97;8391844;28;20090;-50
2022/08/18 12:21:31;;;;;;;28.73;23.58;;;;;;;24.66;77.62;100381.25;8386087;28;20044;-52
2022/08/18 12:25:31;;;;;;;40.80;27.83;;;;;;;24.60;77.04;100404.25;8390359;28;20040;-52
2022/08/18 12:29:31;;;;;;;32.95;24.95;;;;;;;24.35;79.21;100418.22;8390170;28;20596;-51
2022/08/18 12:33:33;;;;;;;37.60;26.58;;;;;;;24.00;79.77;100427.38;8389069;28;20067;-52
2022/08/18 12:37:33;;;;;;;32.35;25.80;;;;;;;23.93;80.24;100401.69;8387135;28;20033;-51
2022/08/18 12:41:34;;;;;;;38.50;28.15;;;;;;;23.95;80.43;100394.06;8388635;28;20066;-52
2022/08/18 12:45:34;;;;;;;42.07;27.00;;;;;;;24.12;78.98;100384.09;8384320;28;20037;-52
2022/08/18 12:49:35;;;;;;;34.60;26.70;;;;;;;24.44;78.36;100368.97;8390214;28;20322;-53
2022/08/18 12:53:35;;;;;;;33.10;25.15;;;;;;;24.59;77.74;100350.06;8387342;28;20090;-50
2022/08/18 12:57:36;;;;;;;37.53;25.63;;;;;;;24.94;76.09;100334.41;8384817;28;20044;-53
2022/08/18 13:01:38;;;;;;;32.65;23.48;;;;;;;25.38;74.69;100336.66;8387030;28;20848;-50
2022/08/18 13:05:38;;;;;;;32.80;25.33;;;;;;;25.29;73.68;100320.59;8387042;28;20067;-53
2022/08/18 13:09:39;;;;;;;30.35;24.30;;;;;;;25.66;73.13;100313.75;8391621;28;20036;-54
2022/08/18 13:13:39;;;;;;;31.25;23.02;;;;;;;25.93;72.19;100301.91;8390518;28;20028;-53
2022/08/18 13:17:40;;;;;;;27.00;20.65;;;;;;;26.18;69.59;100299.66;8390165;28;20181;-53
2022/08/18 13:21:41;;;;;;;25.33;18.73;;;;;;;25.95;70.80;100294.16;8388370;28;20029;-51
2022/08/18 13:25:41;;;;;;;20.77;17.65;;;;;;;25.29;71.47;100299.31;8386340;28;20040;-52
2022/08/18 13:29:42;;;;;;;21.77;17.27;;;;;;;25.68;70.98;100301.31;8383654;28;20051;-51
2022/08/18 13:33:42;;;;;;;16.77;12.52;;;;;;;25.86;70.42;100295.63;8387891;28;20156;-52
2022/08/18 13:37:43;;;;;;;10.68;9.57;;;;;;;25.48;69.87;100297.28;8388403;28;20078;-53
2022/08/18 13:41:45;;;;;;;8.15;7.18;;;;;;;25.40;70.24;100289.34;8383822;28;20405;-53
2022/08/18 13:45:48;;;;;;;12.88;8.07;;;;;;;25.39;69.84;100282.97;8387656;28;20062;-51
2022/08/18 13:49:50;;;;;;;8.95;8.07;;;;;;;25.20;70.98;100284.16;8401689;28;20049;-51
2022/08/18 13:53:50;;;;;;;8.05;6.90;;;;;;;25.56;70.25;100295.00;8381079;28;20477;-52
2022/08/18 13:57:51;;;;;;;10.30;7.63;;;;;;;25.45;69.20;100295.84;8386734;28;20036;-52
2022/08/18 14:01:51;;;;;;;9.48;7.00;;;;;;;25.50;69.65;100303.41;8385838;28;20081;-53
2022/08/18 14:05:56;;;;;;;10.20;7.22;;;;;;;25.48;69.69;100311.97;8385679;28;20116;-53
2022/08/18 14:09:57;;;;;;;8.57;6.28;;;;;;;25.48;69.60;100320.28;8386006;28;20509;-52
2022/08/18 14:13:58;;;;;;;11.25;7.30;;;;;;;25.66;69.25;100310.97;8381814;28;20420;-53
2022/08/18 14:17:58;;;;;;;8.93;6.32;;;;;;;25.97;68.23;100313.31;8384844;28;20087;-53
2022/08/18 14:26:50;;;;;;;9.88;5.82;;;;;;;26.11;67.49;100293.44;8385091;28;20279;-53
2022/08/18 14:30:39;;;;;;;9.93;6.22;;;;;;;26.35;66.55;100289.44;8382712;28;20375;-51
2022/08/18 14:34:41;;;;;;;6.45;5.85;;;;;;;26.15;66.31;100302.06;8385059;28;20036;-53
2022/08/18 14:38:41;;;;;;;6.00;5.28;;;;;;;25.92;67.48;100305.72;8386224;28;20035;-53
2022/08/18 14:42:42;;;;;;;5.75;4.70;;;;;;;25.88;66.61;100299.00;8382664;28;20071;-53
2022/08/18 14:46:46;;;;;;;7.38;5.15;;;;;;;25.93;66.55;100290.81;8386045;28;20067;-54
2022/08/18 14:50:51;;;;;;;5.68;4.63;;;;;;;25.92;67.10;100282.75;8385610;28;20113;-52
2022/08/18 14:54:54;;;;;;;7.68;5.32;;;;;;;26.26;65.95;100279.03;8384764;28;20040;-53
2022/08/18 14:58:54;;;;;;;9.10;5.07;;;;;;;26.43;65.30;100285.44;8385842;28;20036;-52
2022/08/18 15:02:56;;;;;;;8.07;5.35;;;;;;;26.35;65.63;100286.69;8385354;28;20039;-52
2022/08/18 15:06:56;;;;;;;9.52;5.65;;;;;;;26.17;65.74;100283.28;8384790;28;20048;-52
2022/08/18 15:10:57;;;;;;;7.55;5.50;;;;;;;25.95;66.16;100277.53;8382998;28;20049;-53
2022/08/18 15:14:58;;;;;;;8.88;6.07;;;;;;;25.79;66.29;100275.53;8380595;28;20042;-53
2022/08/18 15:19:00;;;;;;;10.25;6.03;;;;;;;26.08;66.11;100277.31;8381949;28;20033;-52
2022/08/18 15:27:30;;;;;;;7.35;5.40;;;;;;;26.28;63.90;100271.28;8383039;28;20448;-51
2022/08/18 15:31:32;;;;;;;6.90;6.20;;;;;;;26.13;63.31;100280.16;8384725;28;20051;-50
2022/08/18 15:35:33;;;;;;;9.55;6.00;;;;;;;26.22;63.07;100286.13;8385584;28;20449;-53
2022/08/18 15:39:34;;;;;;;6.65;5.55;;;;;;;26.07;64.06;100278.38;8384164;28;20501;-53
2022/08/18 15:43:35;;;;;;;6.70;5.30;;;;;;;26.35;63.52;100267.25;8384857;28;20424;-50
2022/08/18 15:47:36;;;;;;;7.63;5.18;;;;;;;26.25;63.56;100264.31;8379279;28;20048;-51
2022/08/18 15:51:40;;;;;;;5.25;4.75;;;;;;;26.37;63.15;100258.69;8388706;28;20040;-53
2022/08/18 15:55:40;;;;;;;5.30;4.10;;;;;;;26.47;62.29;100259.72;8391963;28;20036;-54
2022/08/18 15:59:42;;;;;;;8.30;5.00;;;;;;;26.31;62.70;100260.53;8391888;28;20037;-54
2022/08/18 16:03:42;;;;;;;10.00;5.03;;;;;;;26.32;64.27;100265.00;8391778;28;20455;-54
2022/08/18 16:07:44;;;;;;;12.38;5.07;;;;;;;26.35;63.94;100261.72;8391740;28;20651;-52
2022/08/18 16:11:46;;;;;;;8.70;5.40;;;;;;;26.20;63.67;100257.84;8390605;28;20562;-54
2022/08/18 16:15:49;;;;;;;7.05;5.72;;;;;;;26.15;63.47;100255.81;8391329;28;20478;-54
2022/08/18 16:19:49;;;;;;;6.82;4.78;;;;;;;26.26;63.82;100246.56;8391219;28;20033;-54
2022/08/18 16:23:52;;;;;;;8.10;5.80;;;;;;;26.20;63.81;100252.28;8382677;28;20025;-54
2022/08/18 16:27:54;;;;;;;7.18;5.50;;;;;;;26.04;64.54;100248.38;8375586;28;20082;-55
2022/08/18 16:31:54;;;;;;;8.52;5.40;;;;;;;25.96;64.23;100246.00;8384807;28;20497;-54
2022/08/18 16:35:55;;;;;;;5.38;4.88;;;;;;;26.06;64.62;100237.91;8388390;28;20397;-52
2022/08/18 16:39:55;;;;;;;7.40;5.03;;;;;;;26.00;63.90;100244.44;8361389;28;20122;-54
2022/08/18 16:43:56;;;;;;;7.82;4.45;;;;;;;25.93;64.33;100246.47;8355696;28;20780;-54
2022/08/18 16:47:56;;;;;;;8.70;4.75;;;;;;;25.89;65.11;100245.25;8354477;28;20072;-55
2022/08/18 16:52:00;;;;;;;6.57;4.82;;;;;;;25.82;65.56;100254.81;8353023;28;20033;-54
2022/08/18 16:56:01;;;;;;;;;;;;;;;25.75;65.82;100249.44;8357049;28;20114;-54
2022/08/18 17:04:28;;;;;;;5.43;4.55;;;;;;;25.65;65.36;100231.75;8353514;28;20059;-54
2022/08/18 17:08:32;;;;;;;10.82;4.90;;;;;;;25.59;65.74;100232.75;8354814;28;20559;-54
2022/08/18 17:12:32;;;;;;;;;;;;;;;25.41;67.56;100222.66;8354731;28;20037;-54
2022/08/18 17:16:35;;;;;;;7.67;4.40;;;;;;;25.22;67.83;100228.56;8352920;28;19917;-53
2022/08/18 17:20:35;;;;;;;6.88;5.00;;;;;;;25.10;68.65;100230.50;8350130;28;20688;-54
2022/08/18 17:24:36;;;;;;;10.00;4.45;;;;;;;25.11;67.81;100218.34;8364812;28;20089;-54
2022/08/18 17:28:42;;;;;;;5.95;4.65;;;;;;;25.10;68.05;100220.28;8354678;28;20037;-53
2022/08/18 17:32:48;;;;;;;7.28;5.15;;;;;;;25.02;68.41;100227.03;8356174;28;20433;-54
2022/08/18 17:36:55;;;;;;;5.32;4.80;;;;;;;24.96;68.57;100221.59;8356329;28;20033;-54
2022/08/18 17:40:56;;;;;;;6.70;4.60;;;;;;;24.71;70.30;100224.63;8358162;28;20273;-51
2022/08/18 17:44:59;;;;;;;8.77;4.78;;;;;;;24.42;72.01;100230.16;8387575;28;20109;-52
2022/08/18 17:49:22;;;;;;;8.05;5.05;;;;;;;24.20;72.66;100229.03;8386344;28;20036;-52
2022/08/18 17:53:23;;;;;;;6.63;5.17;;;;;;;24.27;72.60;100221.47;8385062;28;20036;-53
2022/08/18 17:57:31;;;;;;;5.15;4.55;;;;;;;24.18;74.32;100222.91;8381566;28;20048;-51
2022/08/18 18:01:34;;;;;;;8.52;4.88;;;;;;;23.76;76.11;100224.75;8377011;28;20033;-52
2022/08/18 18:05:40;;;;;;;6.45;4.68;;;;;;;23.92;74.88;100217.72;8383936;28;20033;-53
2022/08/18 18:09:40;;;;;;;8.30;5.57;;;;;;;23.58;77.37;100222.03;8384942;28;20048;-53
2022/08/18 18:13:41;;;;;;;8.98;4.65;;;;;;;23.50;77.17;100221.47;8384666;28;20094;-53
2022/08/18 18:17:42;;;;;;;7.97;4.55;;;;;;;23.49;77.08;100217.03;8384579;28;20585;-50
2022/08/18 18:21:42;;;;;;;7.35;4.80;;;;;;;23.30;78.54;100224.50;8384431;28;20428;-51
2022/08/18 18:25:43;;;;;;;6.38;4.72;;;;;;;23.18;78.87;100221.59;8385505;28;20048;-51
2022/08/18 18:29:52;;;;;;;11.25;4.57;;;;;;;23.17;79.18;100219.94;8386084;28;20036;-51
2022/08/18 18:33:59;;;;;;;10.32;5.35;;;;;;;23.36;79.08;100219.97;8385875;28;20032;-50
2022/08/18 18:38:04;;;;;;;5.88;4.45;;;;;;;23.39;76.82;100227.78;8385221;28;20037;-50
2022/08/18 18:42:16;;;;;;;8.38;5.63;;;;;;;23.33;77.21;100228.72;8383481;28;20040;-53
2022/08/18 18:46:30;;;;;;;10.57;4.90;;;;;;;23.20;77.19;100233.25;8383915;28;20131;-50
2022/08/18 18:50:53;;;;;;;;;;;;;;;23.16;77.49;100223.78;8384743;28;20045;-51
2022/08/18 18:55:16;;;;;;;7.53;4.80;;;;;;;23.12;77.10;100221.69;8379143;28;20471;-50
2022/08/18 18:59:57;;;;;;;14.18;5.30;;;;;;;22.96;76.73;100239.66;8383970;28;20040;-53
2022/08/18 19:04:09;;;;;;;11.23;6.03;;;;;;;22.63;78.95;100230.84;8382656;28;20082;-50
2022/08/18 19:08:40;;;;;;;6.25;4.47;;;;;;;22.06;82.03;100242.09;8372333;28;20032;-49
2022/08/18 19:12:50;;;;;;;12.13;5.40;;;;;;;21.95;82.60;100244.66;8383924;28;20063;-53
2022/08/18 19:16:58;;;;;;;17.48;6.10;;;;;;;21.62;84.28;100239.31;8383397;28;20044;-52
2022/08/18 19:21:05;;;;;;;10.50;5.75;;;;;;;21.50;85.90;100251.22;8380518;28;20478;-51
2022/08/18 19:25:15;;;;;;;10.68;6.40;;;;;;;21.78;83.65;100254.53;8379092;28;20189;-50
2022/08/18 19:29:20;;;;;;;6.82;5.70;;;;;;;22.13;82.03;100245.63;8389147;28;20336;-52
2022/08/18 19:33:28;;;;;;;10.32;5.45;;;;;;;22.25;80.85;100245.75;8389018;28;20043;-53
2022/08/18 19:37:43;;;;;;;6.90;5.40;;;;;;;22.02;80.78;100242.75;8390236;28;20068;-50